Time,TemperatureF,DewpointF,PressureIn,WindDirection,WindDirectionDegrees,WindSpeedMPH,WindSpeedGustMPH,Humidity,HourlyPrecipIn,Conditions,Clouds,dailyrainin,SolarRadiationWatts/m^2,SoftwareType,DateUTC
2013-12-29 00:02:00,47.7,35.6,30.16,SSE,160,0.0,1.0,63,0.00,,,0.00,0.0,meteohub,2013-12-29 05:02:00,
2013-12-29 00:07:00,47.7,35.6,30.16,SSE,160,0.0,2.0,63,0.00,,,0.00,0.0,meteohub,2013-12-29 05:07:00,
2013-12-29 00:12:00,47.7,35.6,30.16,SSE,160,0.0,2.0,63,0.00,,,0.00,0.0,meteohub,2013-12-29 05:12:00,
2013-12-29 00:17:00,47.7,36.1,30.15,SSE,160,1.0,2.0,64,0.00,,,0.00,0.0,meteohub,2013-12-29 05:17:00,
2013-12-29 00:22:00,47.8,37.0,30.14,SSE,160,0.0,1.0,66,0.00,,,0.00,0.0,meteohub,2013-12-29 05:22:00,
2013-12-29 00:27:00,47.8,37.0,30.14,SSE,160,0.0,1.0,66,0.00,,,0.00,0.0,meteohub,2013-12-29 05:27:00,
2013-12-29 00:32:00,47.8,37.8,30.14,SSE,160,0.0,1.0,68,0.00,,,0.00,0.0,meteohub,2013-12-29 05:32:00,
2013-12-29 00:37:00,47.7,37.9,30.13,SSE,160,0.0,1.0,69,0.00,,,0.00,0.0,meteohub,2013-12-29 05:37:00,
2013-12-29 00:42:00,47.7,38.3,30.12,SSE,160,0.0,1.0,70,0.00,,,0.00,0.0,meteohub,2013-12-29 05:42:00,
2013-12-29 00:47:00,47.7,39.0,30.11,SSE,160,0.0,1.0,72,0.00,,,0.00,0.0,meteohub,2013-12-29 05:47:00,
2013-12-29 00:52:00,47.7,39.7,30.11,SSE,160,0.0,1.0,74,0.00,,,0.00,0.0,meteohub,2013-12-29 05:52:00,
2013-12-29 00:57:00,47.5,38.8,30.11,SSE,160,0.0,1.0,72,0.00,,,0.00,0.0,meteohub,2013-12-29 05:57:00,
2013-12-29 01:02:00,47.3,38.3,30.10,SSE,160,0.0,1.0,71,0.00,,,0.00,0.0,meteohub,2013-12-29 06:02:00,
2013-12-29 01:07:00,47.1,38.5,30.10,SSE,160,0.0,1.0,72,0.00,,,0.00,0.0,meteohub,2013-12-29 06:07:00,
2013-12-29 01:12:00,47.1,39.6,30.09,SSE,160,0.0,2.0,75,0.00,,,0.00,0.0,meteohub,2013-12-29 06:12:00,
2013-12-29 01:17:00,47.1,39.9,30.09,SSE,160,0.0,2.0,76,0.00,,,0.00,0.0,meteohub,2013-12-29 06:17:00,
2013-12-29 01:22:00,47.1,39.2,30.08,ESE,102,1.0,4.0,74,0.00,,,0.00,0.0,meteohub,2013-12-29 06:22:00,
2013-12-29 01:27:00,46.9,39.0,30.08,ESE,107,1.0,4.0,74,0.00,,,0.00,0.0,meteohub,2013-12-29 06:27:00,
2013-12-29 01:32:00,46.9,39.4,30.08,ENE,76,0.0,4.0,75,0.00,,,0.00,0.0,meteohub,2013-12-29 06:32:00,
2013-12-29 01:37:00,46.9,38.7,30.08,East,86,1.0,2.0,73,0.00,,,0.00,0.0,meteohub,2013-12-29 06:37:00,
2013-12-29 01:42:00,46.9,38.3,30.08,East,86,0.0,1.0,72,0.00,,,0.00,0.0,meteohub,2013-12-29 06:42:00,
2013-12-29 01:47:00,46.9,38.7,30.08,ESE,108,0.0,1.0,73,0.00,,,0.00,0.0,meteohub,2013-12-29 06:47:00,
2013-12-29 01:52:00,46.9,39.7,30.08,ESE,107,0.0,3.0,76,0.00,,,0.00,0.0,meteohub,2013-12-29 06:52:00,
2013-12-29 01:57:00,47.1,41.4,30.08,ESE,107,0.0,3.0,80,0.03,,,0.03,0.0,meteohub,2013-12-29 06:57:00,
2013-12-29 02:02:00,47.1,41.5,30.07,East,101,0.0,3.0,81,0.03,,,0.03,0.0,meteohub,2013-12-29 07:02:00,
2013-12-29 02:07:00,46.9,41.7,30.08,East,101,0.0,3.0,82,0.05,,,0.05,0.0,meteohub,2013-12-29 07:07:00,
2013-12-29 02:12:00,46.9,42.1,30.07,East,101,1.0,3.0,83,0.05,,,0.05,0.0,meteohub,2013-12-29 07:12:00,
2013-12-29 02:17:00,46.8,42.3,30.06,East,101,0.0,2.0,84,0.07,,,0.07,0.0,meteohub,2013-12-29 07:17:00,
2013-12-29 02:22:00,46.4,41.9,30.06,East,101,0.0,2.0,84,0.08,,,0.08,0.0,meteohub,2013-12-29 07:22:00,
2013-12-29 02:27:00,46.2,41.9,30.06,East,101,0.0,2.0,85,0.08,,,0.08,0.0,meteohub,2013-12-29 07:27:00,
2013-12-29 02:32:00,46.0,42.1,30.06,East,101,0.0,2.0,86,0.10,,,0.10,0.0,meteohub,2013-12-29 07:32:00,
2013-12-29 02:37:00,45.9,41.9,30.06,East,101,0.0,2.0,86,0.12,,,0.11,0.0,meteohub,2013-12-29 07:37:00,
2013-12-29 02:42:00,45.7,42.1,30.06,East,101,0.0,1.0,87,0.13,,,0.13,0.0,meteohub,2013-12-29 07:42:00,
2013-12-29 02:47:00,45.7,42.1,30.05,East,101,0.0,1.0,87,0.15,,,0.15,0.0,meteohub,2013-12-29 07:47:00,
2013-12-29 02:52:00,45.3,41.9,30.05,East,101,0.0,1.0,88,0.15,,,0.16,0.0,meteohub,2013-12-29 07:52:00,
2013-12-29 02:57:00,45.3,42.3,30.04,East,101,0.0,1.0,89,0.15,,,0.18,0.0,meteohub,2013-12-29 07:57:00,
2013-12-29 03:02:00,45.1,42.4,30.04,East,100,0.0,1.0,90,0.16,,,0.20,0.0,meteohub,2013-12-29 08:02:00,
2013-12-29 03:07:00,45.1,42.4,30.04,NE,55,0.0,2.0,90,0.15,,,0.20,0.0,meteohub,2013-12-29 08:07:00,
2013-12-29 03:12:00,45.0,42.4,30.03,NE,55,1.0,2.0,91,0.14,,,0.20,0.0,meteohub,2013-12-29 08:12:00,
2013-12-29 03:17:00,45.0,42.4,30.03,SE,132,0.0,2.0,91,0.14,,,0.21,0.0,meteohub,2013-12-29 08:17:00,
2013-12-29 03:22:00,44.8,42.6,30.03,ESE,117,0.0,2.0,92,0.13,,,0.21,0.0,meteohub,2013-12-29 08:22:00,
2013-12-29 03:27:00,44.8,42.6,30.02,East,97,0.0,2.0,92,0.14,,,0.23,0.0,meteohub,2013-12-29 08:27:00,
2013-12-29 03:32:00,44.8,42.8,30.01,East,92,0.0,2.0,93,0.12,,,0.23,0.0,meteohub,2013-12-29 08:32:00,
2013-12-29 03:37:00,44.8,42.8,30.01,East,96,0.0,2.0,93,0.11,,,0.23,0.0,meteohub,2013-12-29 08:37:00,
2013-12-29 03:42:00,44.8,42.8,30.01,East,96,0.0,2.0,93,0.10,,,0.23,0.0,meteohub,2013-12-29 08:42:00,
2013-12-29 03:47:00,44.8,42.8,30.00,East,101,0.0,2.0,93,0.10,,,0.25,0.0,meteohub,2013-12-29 08:47:00,
2013-12-29 03:52:00,44.8,43.2,30.00,ESE,107,1.0,4.0,94,0.10,,,0.27,0.0,meteohub,2013-12-29 08:52:00,
2013-12-29 03:57:00,44.8,43.2,30.00,ESE,102,0.0,4.0,94,0.09,,,0.27,0.0,meteohub,2013-12-29 08:57:00,
2013-12-29 04:02:00,45.0,43.3,29.99,ESE,111,0.0,3.0,94,0.10,,,0.30,0.0,meteohub,2013-12-29 09:02:00,
2013-12-29 04:07:00,45.0,43.3,29.99,ESE,106,0.0,3.0,94,0.11,,,0.31,0.0,meteohub,2013-12-29 09:07:00,
2013-12-29 04:12:00,45.1,43.5,29.98,ESE,104,0.0,3.0,94,0.11,,,0.32,0.0,meteohub,2013-12-29 09:12:00,
2013-12-29 04:17:00,45.1,43.9,29.98,ESE,104,0.0,2.0,95,0.13,,,0.34,0.0,meteohub,2013-12-29 09:17:00,
2013-12-29 04:22:00,45.1,43.9,29.98,ESE,102,0.0,2.0,95,0.13,,,0.34,0.0,meteohub,2013-12-29 09:22:00,
2013-12-29 04:27:00,45.3,44.1,29.98,ESE,102,1.0,2.0,95,0.13,,,0.36,0.0,meteohub,2013-12-29 09:27:00,
2013-12-29 04:32:00,45.5,44.2,29.97,ESE,111,1.0,2.0,95,0.14,,,0.36,0.0,meteohub,2013-12-29 09:32:00,
2013-12-29 04:37:00,45.9,44.4,29.97,ESE,120,1.0,2.0,95,0.15,,,0.38,0.0,meteohub,2013-12-29 09:37:00,
2013-12-29 04:42:00,46.0,45.0,29.96,ESE,123,0.0,3.0,96,0.16,,,0.40,0.0,meteohub,2013-12-29 09:42:00,
2013-12-29 04:47:00,46.2,45.1,29.96,ENE,76,0.0,3.0,96,0.14,,,0.40,0.0,meteohub,2013-12-29 09:47:00,
2013-12-29 04:52:00,46.2,45.1,29.95,East,82,0.0,3.0,96,0.16,,,0.43,0.0,meteohub,2013-12-29 09:52:00,
2013-12-29 04:57:00,46.4,45.3,29.95,ENE,78,0.0,3.0,96,0.15,,,0.43,0.0,meteohub,2013-12-29 09:57:00,
2013-12-29 05:02:00,46.6,45.5,29.94,ENE,73,2.0,3.0,96,0.12,,,0.43,0.0,meteohub,2013-12-29 10:02:00,
2013-12-29 05:07:00,46.6,45.5,29.94,ENE,60,0.0,3.0,96,0.12,,,0.44,0.0,meteohub,2013-12-29 10:07:00,
2013-12-29 05:12:00,46.6,45.5,29.95,WNW,285,0.0,3.0,96,0.12,,,0.45,0.0,meteohub,2013-12-29 10:12:00,
2013-12-29 05:17:00,46.8,45.7,29.94,WNW,285,0.0,3.0,96,0.11,,,0.45,0.0,meteohub,2013-12-29 10:17:00,
2013-12-29 05:22:00,46.8,45.7,29.94,WNW,285,0.0,3.0,96,0.11,,,0.46,0.0,meteohub,2013-12-29 10:22:00,
2013-12-29 05:27:00,46.8,45.7,29.94,WNW,285,0.0,2.0,96,0.11,,,0.46,0.0,meteohub,2013-12-29 10:27:00,
2013-12-29 05:32:00,46.8,45.7,29.94,WNW,285,0.0,2.0,96,0.11,,,0.48,0.0,meteohub,2013-12-29 10:32:00,
2013-12-29 05:37:00,46.9,46.2,29.94,WNW,285,0.0,1.0,97,0.13,,,0.51,0.0,meteohub,2013-12-29 10:37:00,
2013-12-29 05:42:00,47.1,46.4,29.94,WNW,285,0.0,3.0,97,0.12,,,0.52,0.0,meteohub,2013-12-29 10:42:00,
2013-12-29 05:47:00,47.1,46.4,29.94,WNW,285,0.0,3.0,97,0.12,,,0.53,0.0,meteohub,2013-12-29 10:47:00,
2013-12-29 05:52:00,47.1,46.4,29.94,WNW,285,0.0,3.0,97,0.10,,,0.53,0.0,meteohub,2013-12-29 10:52:00,
2013-12-29 05:57:00,47.1,46.4,29.94,WNW,285,1.0,2.0,97,0.11,,,0.54,0.0,meteohub,2013-12-29 10:57:00,
2013-12-29 06:02:00,47.1,46.4,29.94,WNW,285,0.0,2.0,97,0.12,,,0.56,0.0,meteohub,2013-12-29 11:02:00,
2013-12-29 06:07:00,47.1,46.4,29.94,WNW,294,1.0,2.0,97,0.11,,,0.56,0.0,meteohub,2013-12-29 11:07:00,
2013-12-29 06:12:00,47.1,46.4,29.93,WNW,294,2.0,3.0,97,0.13,,,0.58,0.0,meteohub,2013-12-29 11:12:00,
2013-12-29 06:17:00,47.1,46.4,29.92,WNW,294,0.0,3.0,97,0.14,,,0.59,0.0,meteohub,2013-12-29 11:17:00,
2013-12-29 06:22:00,47.1,46.4,29.92,WNW,294,0.0,3.0,97,0.13,,,0.59,0.0,meteohub,2013-12-29 11:22:00,
2013-12-29 06:27:00,47.1,46.4,29.91,WNW,294,1.0,2.0,97,0.13,,,0.60,0.0,meteohub,2013-12-29 11:27:00,
2013-12-29 06:32:00,47.1,46.4,29.91,WNW,294,0.0,2.0,97,0.11,,,0.61,0.0,meteohub,2013-12-29 11:32:00,
2013-12-29 06:37:00,47.1,46.4,29.90,WNW,294,0.0,2.0,97,0.12,,,0.63,0.0,meteohub,2013-12-29 11:37:00,
2013-12-29 06:42:00,47.1,46.4,29.90,WNW,294,0.0,2.0,97,0.11,,,0.64,0.0,meteohub,2013-12-29 11:42:00,
2013-12-29 06:47:00,47.1,46.4,29.90,WNW,294,0.0,2.0,97,0.12,,,0.65,0.0,meteohub,2013-12-29 11:47:00,
2013-12-29 06:52:00,47.1,46.4,29.89,WNW,294,0.0,1.0,97,0.12,,,0.66,0.0,meteohub,2013-12-29 11:52:00,
2013-12-29 06:57:00,47.1,46.4,29.89,WNW,294,0.0,1.0,97,0.12,,,0.67,0.0,meteohub,2013-12-29 11:57:00,
2013-12-29 07:02:00,47.1,46.4,29.88,WNW,294,1.0,1.0,97,0.13,,,0.69,0.0,meteohub,2013-12-29 12:02:00,
2013-12-29 07:07:00,47.1,46.4,29.87,WNW,294,0.0,1.0,97,0.13,,,0.70,0.0,meteohub,2013-12-29 12:07:00,
2013-12-29 07:12:00,47.1,46.4,29.86,WNW,294,0.0,1.0,97,0.13,,,0.71,0.0,meteohub,2013-12-29 12:12:00,
2013-12-29 07:17:00,47.1,46.4,29.86,WNW,294,0.0,1.0,97,0.14,,,0.73,0.0,meteohub,2013-12-29 12:17:00,
2013-12-29 07:22:00,47.1,46.4,29.86,WNW,294,0.0,1.0,97,0.16,,,0.75,0.0,meteohub,2013-12-29 12:22:00,
2013-12-29 07:27:00,47.1,46.4,29.86,WNW,294,0.0,1.0,97,0.17,,,0.77,0.0,meteohub,2013-12-29 12:27:00,
2013-12-29 07:32:00,47.1,46.4,29.86,WNW,294,0.0,1.0,97,0.16,,,0.77,0.0,meteohub,2013-12-29 12:32:00,
2013-12-29 07:37:00,47.1,46.4,29.86,WNW,294,0.0,1.0,97,0.16,,,0.79,0.0,meteohub,2013-12-29 12:37:00,
2013-12-29 07:42:00,47.1,46.4,29.86,WNW,294,0.0,0.0,97,0.15,,,0.79,0.0,meteohub,2013-12-29 12:42:00,
2013-12-29 07:47:00,47.1,46.4,29.85,WNW,294,0.0,0.0,97,0.13,,,0.79,0.0,meteohub,2013-12-29 12:47:00,
2013-12-29 07:52:00,47.3,46.6,29.85,WNW,294,0.0,0.0,97,0.13,,,0.80,0.0,meteohub,2013-12-29 12:52:00,
2013-12-29 07:57:00,47.3,46.6,29.84,WNW,294,0.0,0.0,97,0.18,,,0.86,0.0,meteohub,2013-12-29 12:57:00,
2013-12-29 08:02:00,47.5,46.8,29.84,WNW,294,0.0,0.0,97,0.19,,,0.88,0.0,meteohub,2013-12-29 13:02:00,
2013-12-29 08:07:00,47.5,46.8,29.83,East,84,3.0,3.0,97,0.21,,,0.92,0.0,meteohub,2013-12-29 13:07:00,
2013-12-29 08:12:00,47.7,46.9,29.83,East,90,0.0,3.0,97,0.22,,,0.94,0.0,meteohub,2013-12-29 13:12:00,
2013-12-29 08:17:00,47.8,46.9,29.82,East,90,1.0,3.0,97,0.23,,,0.97,0.0,meteohub,2013-12-29 13:17:00,
2013-12-29 08:22:00,47.8,46.9,29.82,ESE,108,2.0,3.0,97,0.23,,,0.99,0.0,meteohub,2013-12-29 13:22:00,
2013-12-29 08:27:00,48.2,47.7,29.81,East,84,1.0,2.0,98,0.23,,,1.00,0.0,meteohub,2013-12-29 13:27:00,
2013-12-29 08:32:00,48.6,48.0,29.81,ESE,111,1.0,2.0,98,0.23,,,1.01,0.0,meteohub,2013-12-29 13:32:00,
2013-12-29 08:37:00,48.9,48.4,29.81,ESE,103,1.0,3.0,98,0.24,,,1.03,0.0,meteohub,2013-12-29 13:37:00,
2013-12-29 08:42:00,49.3,48.7,29.80,ESE,110,1.0,3.0,98,0.25,,,1.04,0.0,meteohub,2013-12-29 13:42:00,
2013-12-29 08:47:00,49.6,49.1,29.79,SE,139,1.0,3.0,98,0.27,,,1.06,0.0,meteohub,2013-12-29 13:47:00,
2013-12-29 08:52:00,50.4,49.8,29.79,SE,139,1.0,3.0,98,0.28,,,1.07,0.0,meteohub,2013-12-29 13:52:00,
2013-12-29 08:57:00,51.3,50.7,29.79,SE,135,2.0,3.0,98,0.24,,,1.10,0.0,meteohub,2013-12-29 13:57:00,
2013-12-29 09:02:00,52.3,52.0,29.78,SE,140,2.0,4.0,99,0.21,,,1.11,7.0,meteohub,2013-12-29 14:02:00,
2013-12-29 09:07:00,53.4,53.1,29.78,ESE,103,3.0,4.0,99,0.19,,,1.12,5.0,meteohub,2013-12-29 14:07:00,
2013-12-29 09:12:00,54.0,53.6,29.81,WSW,245,3.0,5.0,99,0.16,,,1.12,0.0,meteohub,2013-12-29 14:12:00,
2013-12-29 09:17:00,54.0,53.6,29.80,SW,221,0.0,7.0,99,0.16,,,1.14,0.0,meteohub,2013-12-29 14:17:00,
2013-12-29 09:22:00,54.1,53.8,29.80,SW,221,2.0,7.0,99,0.17,,,1.16,0.0,meteohub,2013-12-29 14:22:00,
2013-12-29 09:27:00,54.1,53.8,29.79,South,190,1.0,5.0,99,0.17,,,1.18,7.0,meteohub,2013-12-29 14:27:00,
2013-12-29 09:32:00,55.0,54.7,29.78,SE,133,1.0,3.0,99,0.17,,,1.19,7.0,meteohub,2013-12-29 14:32:00,
2013-12-29 09:37:00,55.9,55.6,29.78,SE,130,1.0,3.0,99,0.17,,,1.20,9.0,meteohub,2013-12-29 14:37:00,
2013-12-29 09:42:00,56.5,56.1,29.78,SSE,163,0.0,3.0,99,0.16,,,1.21,0.0,meteohub,2013-12-29 14:42:00,
2013-12-29 09:47:00,56.8,56.5,29.77,South,170,2.0,3.0,99,0.15,,,1.22,5.0,meteohub,2013-12-29 14:47:00,
2013-12-29 09:52:00,57.6,57.2,29.77,South,174,2.0,4.0,99,0.15,,,1.24,7.0,meteohub,2013-12-29 14:52:00,
2013-12-29 09:57:00,57.9,57.6,29.75,SE,131,1.0,4.0,99,0.18,,,1.28,16.0,meteohub,2013-12-29 14:57:00,
2013-12-29 10:02:00,58.5,58.1,29.76,SSE,162,1.0,4.0,99,0.17,,,1.28,5.0,meteohub,2013-12-29 15:02:00,
2013-12-29 10:07:00,58.8,58.5,29.76,SE,139,3.0,4.0,99,0.22,,,1.34,7.0,meteohub,2013-12-29 15:07:00,
2013-12-29 10:12:00,59.4,59.0,29.75,SSE,147,1.0,7.0,99,0.25,,,1.38,14.0,meteohub,2013-12-29 15:12:00,
2013-12-29 10:17:00,59.7,59.4,29.75,SSE,153,2.0,7.0,99,0.24,,,1.38,25.0,meteohub,2013-12-29 15:17:00,
2013-12-29 10:22:00,60.1,59.7,29.75,SE,131,0.0,7.0,99,0.22,,,1.39,16.0,meteohub,2013-12-29 15:22:00,
2013-12-29 10:27:00,60.1,59.7,29.75,SE,142,2.0,5.0,99,0.20,,,1.39,12.0,meteohub,2013-12-29 15:27:00,
2013-12-29 10:32:00,60.3,59.9,29.75,SE,138,1.0,4.0,99,0.20,,,1.39,12.0,meteohub,2013-12-29 15:32:00,
2013-12-29 10:37:00,60.6,60.3,29.74,SE,140,2.0,5.0,99,0.19,,,1.39,18.0,meteohub,2013-12-29 15:37:00,
2013-12-29 10:47:00,61.5,61.2,29.74,SW,230,5.0,5.0,99,0.16,,,1.39,14.0,meteohub,2013-12-29 15:47:00,
2013-12-29 10:52:00,62.1,62.1,29.73,SSW,201,2.0,8.0,100,0.13,,,1.39,32.0,meteohub,2013-12-29 15:52:00,
2013-12-29 10:57:00,62.4,62.4,29.72,South,182,2.0,8.0,100,0.11,,,1.39,58.0,meteohub,2013-12-29 15:57:00,
2013-12-29 11:02:00,62.8,62.8,29.72,SSE,155,1.0,8.0,100,0.10,,,1.39,65.0,meteohub,2013-12-29 16:02:00,
2013-12-29 11:07:00,63.0,63.0,29.72,South,172,2.0,6.0,100,0.03,,,1.39,30.0,meteohub,2013-12-29 16:07:00,
2013-12-29 11:12:00,63.1,63.1,29.71,South,179,1.0,10.0,100,0.01,,,1.39,26.0,meteohub,2013-12-29 16:12:00,
2013-12-29 11:17:00,63.3,63.3,29.70,SSE,163,1.0,10.0,100,0.00,,,1.39,33.0,meteohub,2013-12-29 16:17:00,
2013-12-29 11:22:00,63.3,63.3,29.70,SE,126,4.0,10.0,100,0.00,,,1.39,18.0,meteohub,2013-12-29 16:22:00,
2013-12-29 11:27:00,63.7,63.7,29.69,ESE,102,1.0,6.0,100,0.02,,,1.41,26.0,meteohub,2013-12-29 16:27:00,
2013-12-29 11:32:00,63.7,63.7,29.68,SE,144,0.0,6.0,100,0.04,,,1.43,18.0,meteohub,2013-12-29 16:32:00,
2013-12-29 11:37:00,63.7,63.7,29.71,NW,304,2.0,6.0,100,0.05,,,1.44,5.0,meteohub,2013-12-29 16:37:00,
2013-12-29 11:42:00,63.7,63.3,29.71,SW,233,7.0,9.0,99,0.13,,,1.52,28.0,meteohub,2013-12-29 16:42:00,
2013-12-29 11:47:00,63.3,63.0,29.71,WSW,241,2.0,9.0,99,0.21,,,1.60,21.0,meteohub,2013-12-29 16:47:00,
2013-12-29 11:52:00,63.3,63.0,29.70,West,261,1.0,9.0,99,0.21,,,1.60,40.0,meteohub,2013-12-29 16:52:00,
2013-12-29 11:57:00,63.1,63.1,29.70,ENE,68,2.0,7.0,100,0.22,,,1.61,18.0,meteohub,2013-12-29 16:57:00,
2013-12-29 12:02:00,63.0,63.0,29.70,West,272,3.0,8.0,100,0.22,,,1.61,26.0,meteohub,2013-12-29 17:02:00,
2013-12-29 12:07:00,62.4,62.1,29.71,WSW,242,6.0,11.0,99,0.22,,,1.61,26.0,meteohub,2013-12-29 17:07:00,
2013-12-29 12:12:00,61.7,61.3,29.71,NW,311,0.0,11.0,99,0.22,,,1.61,33.0,meteohub,2013-12-29 17:12:00,
2013-12-29 12:17:00,61.3,61.0,29.69,West,281,0.0,11.0,99,0.22,,,1.61,98.0,meteohub,2013-12-29 17:17:00,
2013-12-29 12:22:00,61.2,60.8,29.71,West,261,2.0,10.0,99,0.21,,,1.61,35.0,meteohub,2013-12-29 17:22:00,
2013-12-29 12:27:00,60.6,60.3,29.71,West,260,3.0,9.0,99,0.18,,,1.61,39.0,meteohub,2013-12-29 17:27:00,
2013-12-29 12:32:00,60.1,59.7,29.71,West,267,3.0,9.0,99,0.18,,,1.61,54.0,meteohub,2013-12-29 17:32:00,
2013-12-29 12:37:00,59.7,59.4,29.71,WSW,250,2.0,9.0,99,0.17,,,1.61,51.0,meteohub,2013-12-29 17:37:00,
2013-12-29 12:42:00,59.4,59.0,29.72,West,278,8.0,8.0,99,0.05,,,1.61,40.0,meteohub,2013-12-29 17:42:00,
2013-12-29 12:47:00,58.8,58.5,29.72,NW,312,2.0,9.0,99,0.01,,,1.61,44.0,meteohub,2013-12-29 17:47:00,
2013-12-29 12:52:00,58.6,58.3,29.73,West,271,7.0,9.0,99,0.01,,,1.61,46.0,meteohub,2013-12-29 17:52:00,
2013-12-29 12:57:00,58.3,57.9,29.74,West,267,2.0,9.0,99,0.00,,,1.61,42.0,meteohub,2013-12-29 17:57:00,
2013-12-29 13:02:00,57.9,57.6,29.74,WSW,247,8.0,9.0,99,0.00,,,1.61,58.0,meteohub,2013-12-29 18:02:00,
2013-12-29 13:07:00,57.6,57.2,29.75,WSW,256,8.0,9.0,99,0.00,,,1.61,53.0,meteohub,2013-12-29 18:07:00,
2013-12-29 13:12:00,57.2,56.8,29.74,WSW,245,7.0,12.0,99,0.00,,,1.61,114.0,meteohub,2013-12-29 18:12:00,
2013-12-29 13:17:00,57.0,56.7,29.74,WSW,250,3.0,12.0,99,0.00,,,1.61,74.0,meteohub,2013-12-29 18:17:00,
2013-12-29 13:22:00,56.7,56.3,29.74,SSW,209,1.0,12.0,99,0.00,,,1.61,72.0,meteohub,2013-12-29 18:22:00,
2013-12-29 13:27:00,56.5,56.1,29.73,West,263,2.0,12.0,99,0.00,,,1.61,58.0,meteohub,2013-12-29 18:27:00,
2013-12-29 13:32:00,56.3,55.9,29.74,WSW,251,2.0,12.0,99,0.00,,,1.61,62.0,meteohub,2013-12-29 18:32:00,
2013-12-29 13:37:00,56.1,55.8,29.73,WSW,248,3.0,11.0,99,0.00,,,1.61,46.0,meteohub,2013-12-29 18:37:00,
2013-12-29 13:42:00,55.8,55.4,29.74,WSW,240,3.0,11.0,99,0.00,,,1.61,39.0,meteohub,2013-12-29 18:42:00,
2013-12-29 13:47:00,55.6,55.2,29.73,WSW,242,5.0,11.0,99,0.00,,,1.61,39.0,meteohub,2013-12-29 18:47:00,
2013-12-29 13:52:00,55.2,54.7,29.73,WSW,239,3.0,11.0,98,0.00,,,1.61,60.0,meteohub,2013-12-29 18:52:00,
2013-12-29 13:57:00,55.0,54.7,29.73,WSW,245,2.0,10.0,99,0.00,,,1.61,56.0,meteohub,2013-12-29 18:57:00,
2013-12-29 14:02:00,54.9,54.3,29.73,WSW,252,4.0,10.0,98,0.00,,,1.61,84.0,meteohub,2013-12-29 19:02:00,
2013-12-29 14:07:00,54.7,54.1,29.73,WSW,242,4.0,8.0,98,0.00,,,1.61,90.0,meteohub,2013-12-29 19:07:00,
2013-12-29 14:12:00,54.5,54.1,29.73,West,263,0.0,8.0,99,0.00,,,1.61,120.0,meteohub,2013-12-29 19:12:00,
2013-12-29 14:17:00,54.9,54.5,29.73,WSW,239,2.0,7.0,99,0.00,,,1.61,146.0,meteohub,2013-12-29 19:17:00,
2013-12-29 14:22:00,55.0,54.5,29.74,WSW,247,5.0,6.0,98,0.00,,,1.61,109.0,meteohub,2013-12-29 19:22:00,
2013-12-29 14:27:00,55.0,54.5,29.74,WSW,244,2.0,9.0,98,0.00,,,1.61,76.0,meteohub,2013-12-29 19:27:00,
2013-12-29 14:32:00,54.7,53.8,29.74,WSW,244,4.0,10.0,97,0.00,,,1.61,72.0,meteohub,2013-12-29 19:32:00,
2013-12-29 14:37:00,54.5,53.6,29.74,West,265,2.0,10.0,97,0.00,,,1.61,69.0,meteohub,2013-12-29 19:37:00,
2013-12-29 14:42:00,54.7,53.6,29.74,WNW,292,1.0,10.0,96,0.00,,,1.61,54.0,meteohub,2013-12-29 19:42:00,
2013-12-29 14:47:00,54.9,53.8,29.74,West,275,3.0,9.0,96,0.00,,,1.61,69.0,meteohub,2013-12-29 19:47:00,
2013-12-29 14:52:00,54.9,53.8,29.73,WSW,252,1.0,7.0,96,0.00,,,1.61,76.0,meteohub,2013-12-29 19:52:00,
2013-12-29 15:02:00,55.0,53.6,29.74,West,259,2.0,9.0,95,0.00,,,1.61,91.0,meteohub,2013-12-29 20:02:00,
2013-12-29 15:07:00,55.0,53.4,29.74,WSW,253,5.0,9.0,94,0.00,,,1.61,79.0,meteohub,2013-12-29 20:07:00,
2013-12-29 15:12:00,55.0,53.4,29.75,WSW,245,7.0,11.0,94,0.00,,,1.61,65.0,meteohub,2013-12-29 20:12:00,
2013-12-29 15:17:00,54.9,53.2,29.75,WSW,248,2.0,11.0,94,0.00,,,1.61,40.0,meteohub,2013-12-29 20:17:00,
2013-12-29 15:22:00,54.9,53.2,29.76,West,265,3.0,11.0,94,0.00,,,1.61,47.0,meteohub,2013-12-29 20:22:00,
2013-12-29 15:27:00,54.9,53.2,29.76,West,270,0.0,7.0,94,0.00,,,1.61,62.0,meteohub,2013-12-29 20:27:00,
2013-12-29 15:32:00,54.9,53.2,29.76,WSW,243,3.0,6.0,94,0.00,,,1.61,37.0,meteohub,2013-12-29 20:32:00,
2013-12-29 15:37:00,54.7,53.1,29.76,SW,234,6.0,8.0,94,0.00,,,1.61,53.0,meteohub,2013-12-29 20:37:00,
2013-12-29 15:42:00,54.7,52.7,29.76,WSW,246,3.0,8.0,93,0.00,,,1.61,47.0,meteohub,2013-12-29 20:42:00,
2013-12-29 15:47:00,54.3,52.3,29.76,WSW,249,2.0,8.0,93,0.00,,,1.61,49.0,meteohub,2013-12-29 20:47:00,
2013-12-29 15:52:00,54.3,52.0,29.76,WSW,244,4.0,7.0,92,0.00,,,1.61,53.0,meteohub,2013-12-29 20:52:00,
2013-12-29 15:57:00,54.1,51.8,29.76,West,265,2.0,6.0,92,0.00,,,1.61,49.0,meteohub,2013-12-29 20:57:00,
2013-12-29 16:02:00,54.1,51.8,29.76,West,259,0.0,6.0,92,0.00,,,1.61,23.0,meteohub,2013-12-29 21:02:00,
2013-12-29 16:07:00,54.0,51.6,29.76,West,260,0.0,6.0,92,0.00,,,1.61,23.0,meteohub,2013-12-29 21:07:00,
2013-12-29 16:12:00,54.0,51.6,29.77,WSW,247,3.0,6.0,92,0.00,,,1.61,18.0,meteohub,2013-12-29 21:12:00,
2013-12-29 16:17:00,53.8,51.3,29.77,WNW,286,1.0,6.0,91,0.00,,,1.61,16.0,meteohub,2013-12-29 21:17:00,
2013-12-29 16:22:00,53.8,51.3,29.77,West,267,2.0,7.0,91,0.00,,,1.61,14.0,meteohub,2013-12-29 21:22:00,
2013-12-29 16:27:00,53.6,51.1,29.77,WSW,253,2.0,7.0,91,0.00,,,1.61,11.0,meteohub,2013-12-29 21:27:00,
2013-12-29 16:32:00,53.4,50.9,29.78,WSW,253,1.0,7.0,91,0.00,,,1.61,11.0,meteohub,2013-12-29 21:32:00,
2013-12-29 16:37:00,53.4,51.1,29.78,WSW,253,2.0,7.0,92,0.00,,,1.61,9.0,meteohub,2013-12-29 21:37:00,
2013-12-29 16:42:00,53.2,50.7,29.78,West,263,1.0,3.0,91,0.00,,,1.61,7.0,meteohub,2013-12-29 21:42:00,
2013-12-29 16:47:00,53.1,50.5,29.78,WSW,249,2.0,3.0,91,0.00,,,1.61,5.0,meteohub,2013-12-29 21:47:00,
2013-12-29 16:52:00,53.1,50.5,29.78,WSW,247,2.0,4.0,91,0.00,,,1.61,5.0,meteohub,2013-12-29 21:52:00,
2013-12-29 16:57:00,52.9,50.5,29.78,WNW,287,3.0,5.0,92,0.00,,,1.61,0.0,meteohub,2013-12-29 21:57:00,
2013-12-29 17:02:00,52.7,50.2,29.79,WSW,250,4.0,5.0,91,0.00,,,1.61,0.0,meteohub,2013-12-29 22:02:00,
2013-12-29 17:07:00,52.5,50.0,29.79,WSW,253,1.0,4.0,91,0.00,,,1.61,0.0,meteohub,2013-12-29 22:07:00,
2013-12-29 17:12:00,52.3,49.8,29.79,WSW,253,1.0,5.0,91,0.00,,,1.61,0.0,meteohub,2013-12-29 22:12:00,
2013-12-29 17:17:00,52.3,50.0,29.80,WSW,253,2.0,5.0,92,0.00,,,1.61,0.0,meteohub,2013-12-29 22:17:00,
2013-12-29 17:22:00,52.2,49.8,29.79,WSW,253,2.0,4.0,92,0.00,,,1.61,0.0,meteohub,2013-12-29 22:22:00,
2013-12-29 17:27:00,52.0,49.6,29.80,WSW,253,1.0,3.0,92,0.00,,,1.61,0.0,meteohub,2013-12-29 22:27:00,
2013-12-29 17:32:00,51.8,49.6,29.80,WSW,253,0.0,3.0,92,0.00,,,1.61,0.0,meteohub,2013-12-29 22:32:00,
2013-12-29 17:37:00,51.6,49.5,29.80,WSW,256,3.0,3.0,92,0.00,,,1.61,0.0,meteohub,2013-12-29 22:37:00,
2013-12-29 17:42:00,51.4,49.3,29.81,WSW,256,0.0,4.0,92,0.00,,,1.61,0.0,meteohub,2013-12-29 22:42:00,
2013-12-29 17:47:00,51.4,49.3,29.81,WSW,256,0.0,4.0,92,0.00,,,1.61,0.0,meteohub,2013-12-29 22:47:00,
2013-12-29 17:52:00,51.3,49.1,29.81,WSW,254,0.0,4.0,92,0.00,,,1.61,0.0,meteohub,2013-12-29 22:52:00,
2013-12-29 17:57:00,51.1,49.1,29.81,WSW,254,2.0,3.0,93,0.00,,,1.61,0.0,meteohub,2013-12-29 22:57:00,
2013-12-29 18:02:00,51.1,48.9,29.82,WSW,254,1.0,3.0,92,0.00,,,1.61,0.0,meteohub,2013-12-29 23:02:00,
2013-12-29 18:07:00,50.7,48.6,29.82,WSW,253,1.0,3.0,92,0.00,,,1.61,0.0,meteohub,2013-12-29 23:07:00,
2013-12-29 18:12:00,50.7,48.7,29.82,WSW,253,0.0,3.0,93,0.00,,,1.61,0.0,meteohub,2013-12-29 23:12:00,
2013-12-29 18:17:00,50.5,48.6,29.82,WSW,253,1.0,3.0,93,0.00,,,1.61,0.0,meteohub,2013-12-29 23:17:00,
2013-12-29 18:22:00,50.4,48.4,29.82,WSW,253,1.0,3.0,93,0.00,,,1.61,0.0,meteohub,2013-12-29 23:22:00,
2013-12-29 18:27:00,50.4,48.4,29.83,WSW,253,0.0,3.0,93,0.00,,,1.61,0.0,meteohub,2013-12-29 23:27:00,
2013-12-29 18:32:00,50.2,48.2,29.83,WSW,253,0.0,3.0,93,0.00,,,1.61,0.0,meteohub,2013-12-29 23:32:00,
2013-12-29 18:37:00,50.2,48.2,29.83,WSW,253,0.0,3.0,93,0.00,,,1.61,0.0,meteohub,2013-12-29 23:37:00,
2013-12-29 18:42:00,49.8,47.8,29.83,WSW,253,0.0,3.0,93,0.00,,,1.61,0.0,meteohub,2013-12-29 23:42:00,
2013-12-29 18:47:00,49.8,47.8,29.83,WSW,253,0.0,2.0,93,0.00,,,1.61,0.0,meteohub,2013-12-29 23:47:00,
2013-12-29 18:52:00,49.6,47.7,29.84,WSW,253,0.0,2.0,93,0.00,,,1.61,0.0,meteohub,2013-12-29 23:52:00,
2013-12-29 18:57:00,49.6,47.7,29.84,WSW,253,2.0,2.0,93,0.00,,,1.61,0.0,meteohub,2013-12-29 23:57:00,
2013-12-29 19:02:00,49.5,47.5,29.84,WSW,253,2.0,2.0,93,0.00,,,1.61,0.0,meteohub,2013-12-30 00:02:00,
2013-12-29 19:07:00,49.3,47.3,29.85,WSW,253,1.0,2.0,93,0.00,,,1.61,0.0,meteohub,2013-12-30 00:07:00,
2013-12-29 19:12:00,49.3,47.7,29.85,WSW,253,0.0,2.0,94,0.00,,,1.61,0.0,meteohub,2013-12-30 00:12:00,
2013-12-29 19:17:00,49.1,47.5,29.85,WSW,253,0.0,2.0,94,0.00,,,1.61,0.0,meteohub,2013-12-30 00:17:00,
2013-12-29 19:22:00,48.9,47.3,29.86,WSW,250,2.0,3.0,94,0.00,,,1.61,0.0,meteohub,2013-12-30 00:22:00,
2013-12-29 19:27:00,48.9,47.3,29.85,WSW,250,0.0,3.0,94,0.00,,,1.61,0.0,meteohub,2013-12-30 00:27:00,
2013-12-29 19:32:00,48.7,47.3,29.86,WSW,250,1.0,3.0,95,0.00,,,1.61,0.0,meteohub,2013-12-30 00:32:00,
2013-12-29 19:37:00,48.7,47.3,29.86,WSW,250,0.0,3.0,95,0.00,,,1.61,0.0,meteohub,2013-12-30 00:37:00,
2013-12-29 19:42:00,48.7,47.3,29.86,West,275,1.0,4.0,95,0.00,,,1.61,0.0,meteohub,2013-12-30 00:42:00,
2013-12-29 19:47:00,48.7,47.3,29.86,WSW,258,2.0,4.0,95,0.00,,,1.61,0.0,meteohub,2013-12-30 00:47:00,
2013-12-29 19:52:00,48.7,47.3,29.86,WSW,257,1.0,4.0,95,0.00,,,1.61,0.0,meteohub,2013-12-30 00:52:00,
2013-12-29 19:57:00,48.6,47.1,29.87,WSW,244,1.0,4.0,95,0.00,,,1.61,0.0,meteohub,2013-12-30 00:57:00,
2013-12-29 20:02:00,48.6,47.5,29.87,WSW,244,2.0,4.0,96,0.00,,,1.61,0.0,meteohub,2013-12-30 01:02:00,
2013-12-29 20:07:00,48.6,47.5,29.87,WSW,244,0.0,4.0,96,0.00,,,1.61,0.0,meteohub,2013-12-30 01:07:00,
2013-12-29 20:12:00,48.4,47.3,29.87,WSW,257,2.0,3.0,96,0.00,,,1.61,0.0,meteohub,2013-12-30 01:12:00,
2013-12-29 20:17:00,48.4,47.3,29.88,West,261,1.0,3.0,96,0.00,,,1.61,0.0,meteohub,2013-12-30 01:17:00,
2013-12-29 20:22:00,48.4,46.9,29.88,West,266,1.0,3.0,95,0.00,,,1.61,0.0,meteohub,2013-12-30 01:22:00,
2013-12-29 20:27:00,48.2,47.1,29.88,West,265,1.0,4.0,96,0.00,,,1.61,0.0,meteohub,2013-12-30 01:27:00,
2013-12-29 20:32:00,48.2,47.1,29.88,West,266,0.0,4.0,96,0.00,,,1.61,0.0,meteohub,2013-12-30 01:32:00,
2013-12-29 20:37:00,48.2,47.1,29.88,WSW,255,1.0,4.0,96,0.00,,,1.61,0.0,meteohub,2013-12-30 01:37:00,
2013-12-29 20:42:00,48.0,46.9,29.89,WSW,248,3.0,4.0,96,0.00,,,1.61,0.0,meteohub,2013-12-30 01:42:00,
2013-12-29 20:47:00,48.0,46.9,29.88,West,269,1.0,4.0,96,0.00,,,1.61,0.0,meteohub,2013-12-30 01:47:00,
2013-12-29 20:52:00,48.0,46.9,29.89,WSW,251,1.0,4.0,96,0.00,,,1.61,0.0,meteohub,2013-12-30 01:52:00,
2013-12-29 20:57:00,48.0,46.9,29.89,West,275,2.0,4.0,96,0.00,,,1.61,0.0,meteohub,2013-12-30 01:57:00,
2013-12-29 21:02:00,48.0,46.9,29.89,West,279,1.0,4.0,96,0.00,,,1.61,0.0,meteohub,2013-12-30 02:02:00,
2013-12-29 21:07:00,47.8,46.8,29.89,WSW,258,1.0,4.0,96,0.00,,,1.61,0.0,meteohub,2013-12-30 02:07:00,
2013-12-29 21:12:00,47.8,46.8,29.90,WSW,251,2.0,5.0,96,0.00,,,1.61,0.0,meteohub,2013-12-30 02:12:00,
2013-12-29 21:17:00,47.8,46.8,29.90,WSW,252,1.0,5.0,96,0.00,,,1.61,0.0,meteohub,2013-12-30 02:17:00,
2013-12-29 21:22:00,47.8,46.8,29.90,WSW,256,2.0,5.0,96,0.00,,,1.61,0.0,meteohub,2013-12-30 02:22:00,
2013-12-29 21:27:00,47.8,46.8,29.90,West,273,1.0,4.0,96,0.00,,,1.61,0.0,meteohub,2013-12-30 02:27:00,
2013-12-29 21:32:00,47.7,46.6,29.90,WSW,252,1.0,4.0,96,0.00,,,1.61,0.0,meteohub,2013-12-30 02:32:00,
2013-12-29 21:37:00,47.7,46.6,29.91,West,281,3.0,5.0,96,0.00,,,1.61,0.0,meteohub,2013-12-30 02:37:00,
2013-12-29 21:42:00,47.7,46.6,29.91,West,281,0.0,5.0,96,0.00,,,1.61,0.0,meteohub,2013-12-30 02:42:00,
2013-12-29 21:47:00,47.5,46.4,29.91,West,260,1.0,5.0,96,0.00,,,1.61,0.0,meteohub,2013-12-30 02:47:00,
2013-12-29 21:52:00,47.5,46.4,29.91,West,277,2.0,4.0,96,0.00,,,1.61,0.0,meteohub,2013-12-30 02:52:00,
2013-12-29 21:57:00,47.5,46.4,29.91,West,259,0.0,4.0,96,0.00,,,1.61,0.0,meteohub,2013-12-30 02:57:00,
2013-12-29 22:02:00,47.5,46.4,29.92,West,275,2.0,4.0,96,0.00,,,1.61,0.0,meteohub,2013-12-30 03:02:00,
2013-12-29 22:07:00,47.3,46.2,29.92,WSW,245,1.0,4.0,96,0.00,,,1.61,0.0,meteohub,2013-12-30 03:07:00,
2013-12-29 22:12:00,47.3,46.6,29.92,West,267,1.0,4.0,97,0.00,,,1.61,0.0,meteohub,2013-12-30 03:12:00,
2013-12-29 22:17:00,47.1,46.4,29.92,West,267,1.0,4.0,97,0.00,,,1.61,0.0,meteohub,2013-12-30 03:17:00,
2013-12-29 22:22:00,47.1,46.4,29.92,West,267,0.0,4.0,97,0.00,,,1.61,0.0,meteohub,2013-12-30 03:22:00,
2013-12-29 22:27:00,47.1,46.4,29.93,West,267,1.0,3.0,97,0.00,,,1.61,0.0,meteohub,2013-12-30 03:27:00,
2013-12-29 22:32:00,47.1,46.4,29.93,West,267,0.0,3.0,97,0.00,,,1.61,0.0,meteohub,2013-12-30 03:32:00,
2013-12-29 22:37:00,46.9,46.2,29.93,West,267,0.0,2.0,97,0.00,,,1.61,0.0,meteohub,2013-12-30 03:37:00,
2013-12-29 22:42:00,46.9,46.2,29.93,West,267,0.0,2.0,97,0.00,,,1.61,0.0,meteohub,2013-12-30 03:42:00,
2013-12-29 22:47:00,46.9,46.2,29.94,West,267,0.0,2.0,97,0.00,,,1.61,0.0,meteohub,2013-12-30 03:47:00,
2013-12-29 22:52:00,46.9,46.2,29.94,West,267,0.0,2.0,97,0.00,,,1.61,0.0,meteohub,2013-12-30 03:52:00,
2013-12-29 22:57:00,46.8,46.0,29.94,West,267,0.0,2.0,97,0.00,,,1.61,0.0,meteohub,2013-12-30 03:57:00,
2013-12-29 23:02:00,46.8,46.0,29.94,West,267,0.0,1.0,97,0.00,,,1.61,0.0,meteohub,2013-12-30 04:02:00,
2013-12-29 23:07:00,46.6,45.5,29.94,West,267,0.0,1.0,96,0.00,,,1.61,0.0,meteohub,2013-12-30 04:07:00,
2013-12-29 23:12:00,46.6,45.9,29.94,West,267,0.0,2.0,97,0.00,,,1.61,0.0,meteohub,2013-12-30 04:12:00,
2013-12-29 23:17:00,46.6,45.9,29.94,West,267,0.0,2.0,97,0.00,,,1.61,0.0,meteohub,2013-12-30 04:17:00,
2013-12-29 23:22:00,46.4,45.7,29.94,West,267,0.0,2.0,97,0.00,,,1.61,0.0,meteohub,2013-12-30 04:22:00,
2013-12-29 23:27:00,46.2,45.5,29.94,West,267,0.0,0.0,97,0.00,,,1.61,0.0,meteohub,2013-12-30 04:27:00,
2013-12-29 23:32:00,46.2,45.1,29.94,West,267,0.0,0.0,96,0.00,,,1.61,0.0,meteohub,2013-12-30 04:32:00,
2013-12-29 23:37:00,46.0,45.0,29.93,West,267,0.0,0.0,96,0.00,,,1.61,0.0,meteohub,2013-12-30 04:37:00,
2013-12-29 23:42:00,46.0,45.0,29.94,West,267,0.0,0.0,96,0.00,,,1.61,0.0,meteohub,2013-12-30 04:42:00,
2013-12-29 23:47:00,46.0,45.0,29.94,West,267,0.0,0.0,96,0.00,,,1.61,0.0,meteohub,2013-12-30 04:47:00,
2013-12-29 23:52:00,45.9,44.8,29.94,West,267,0.0,0.0,96,0.00,,,1.61,0.0,meteohub,2013-12-30 04:52:00,
2013-12-29 23:57:00,45.9,44.8,29.94,West,267,0.0,0.0,96,0.00,,,1.61,0.0,meteohub,2013-12-30 04:57:00,